Terminal Aerodrome Forecast
Issued by NWS

Home | Current Version | Previous Version | Graphics & Text | Print | Product List | Glossary On
Versions: 1 2 3 4 5 6 7 8 9 10 11 12 13 14 15 16 17 18 19 20 21 22
000
FTUS42 KMHX 021005 AAD
TAFOAJ
TAF AMD
KOAJ 021005Z 0210/0306 00000KT P6SM SCT100
      TEMPO 0210/0212 2SM BR
     FM021300 VRB02KT P6SM SKC
     FM021700 14005KT P6SM FEW060
     FM030000 17005KT P6SM SKC
      AMD LTD TO CLD VIS AND WIND=

USA.gov is the U.S. government's official web portal to all federal, state and local government web resources and services.